sensor_id;sensor_type;location;lat;lon;timestamp;pressure;altitude;pressure_sealevel;temperature;humidity
30744;BME280;17486;46.738;7.622;2022-08-19T00:00:23;94899.00;;;19.53;66.62
30744;BME280;17486;46.738;7.622;2022-08-19T00:02:48;94955.13;;;19.94;66.48
30744;BME280;17486;46.738;7.622;2022-08-19T00:05:14;94952.47;;;19.94;66.45
30744;BME280;17486;46.738;7.622;2022-08-19T00:07:41;94961.50;;;19.92;66.27
30744;BME280;17486;46.738;7.622;2022-08-19T00:10:09;94924.00;;;19.78;66.12
30744;BME280;17486;46.738;7.622;2022-08-19T00:12:35;94880.00;;;19.49;66.03
30744;BME280;17486;46.738;7.622;2022-08-19T00:15:08;94943.72;;;19.84;65.86
30744;BME280;17486;46.738;7.622;2022-08-19T00:17:37;94889.41;;;19.52;65.67
30744;BME280;17486;46.738;7.622;2022-08-19T00:20:03;94954.69;;;19.89;65.81
30744;BME280;17486;46.738;7.622;2022-08-19T00:22:29;94964.00;;;19.93;65.69
30744;BME280;17486;46.738;7.622;2022-08-19T00:24:54;94882.34;;;19.43;66.07
30744;BME280;17486;46.738;7.622;2022-08-19T00:27:20;94882.34;;;19.43;66.37
30744;BME280;17486;46.738;7.622;2022-08-19T00:29:45;94889.84;;;19.47;66.48
30744;BME280;17486;46.738;7.622;2022-08-19T00:32:11;94969.97;;;19.95;66.81
30744;BME280;17486;46.738;7.622;2022-08-19T00:34:37;94891.38;;;19.50;67.06
30744;BME280;17486;46.738;7.622;2022-08-19T00:37:02;94884.72;;;19.46;67.09
30744;BME280;17486;46.738;7.622;2022-08-19T00:39:28;94873.34;;;19.35;66.98
30744;BME280;17486;46.738;7.622;2022-08-19T00:41:53;94962.31;;;19.92;67.12
30744;BME280;17486;46.738;7.622;2022-08-19T00:44:24;94893.31;;;19.48;66.82
30744;BME280;17486;46.738;7.622;2022-08-19T00:46:51;94925.94;;;19.66;66.71
30744;BME280;17486;46.738;7.622;2022-08-19T00:49:22;94958.59;;;19.85;66.81
30744;BME280;17486;46.738;7.622;2022-08-19T00:51:51;94954.13;;;19.85;66.91
30744;BME280;17486;46.738;7.622;2022-08-19T00:54:19;94880.28;;;19.36;67.05
30744;BME280;17486;46.738;7.622;2022-08-19T00:56:46;94950.69;;;19.85;67.49
30744;BME280;17486;46.738;7.622;2022-08-19T00:59:14;94930.38;;;19.76;67.51
30744;BME280;17486;46.738;7.622;2022-08-19T01:01:42;94939.97;;;19.86;67.79
30744;BME280;17486;46.738;7.622;2022-08-19T01:04:08;94948.03;;;19.85;67.70
30744;BME280;17486;46.738;7.622;2022-08-19T01:06:36;94949.41;;;19.89;68.12
30744;BME280;17486;46.738;7.622;2022-08-19T01:09:03;94937.63;;;19.83;68.21
30744;BME280;17486;46.738;7.622;2022-08-19T01:11:31;94959.00;;;19.90;68.21
30744;BME280;17486;46.738;7.622;2022-08-19T01:13:58;94952.31;;;19.86;68.28
30744;BME280;17486;46.738;7.622;2022-08-19T01:16:25;94870.56;;;19.37;68.38
30744;BME280;17486;46.738;7.622;2022-08-19T01:18:52;94919.97;;;19.64;68.60
30744;BME280;17486;46.738;7.622;2022-08-19T01:21:23;94944.53;;;19.75;69.09
30744;BME280;17486;46.738;7.622;2022-08-19T01:23:50;94888.31;;;19.45;69.27
30744;BME280;17486;46.738;7.622;2022-08-19T01:26:19;94937.44;;;19.75;69.13
30744;BME280;17486;46.738;7.622;2022-08-19T01:28:47;94861.81;;;19.27;69.39
30744;BME280;17486;46.738;7.622;2022-08-19T01:31:16;94842.53;;;19.07;69.37
30744;BME280;17486;46.738;7.622;2022-08-19T01:33:43;94928.56;;;19.57;70.00
30744;BME280;17486;46.738;7.622;2022-08-19T01:36:15;94881.66;;;19.21;69.92
30744;BME280;17486;46.738;7.622;2022-08-19T01:38:42;94942.19;;;19.62;69.64
30744;BME280;17486;46.738;7.622;2022-08-19T01:41:09;94946.75;;;19.60;70.03
30744;BME280;17486;46.738;7.622;2022-08-19T01:43:34;94865.81;;;19.11;70.16
30744;BME280;17486;46.738;7.622;2022-08-19T01:46:00;94929.81;;;19.52;70.48
30744;BME280;17486;46.738;7.622;2022-08-19T01:48:26;94929.53;;;19.55;70.62
30744;BME280;17486;46.738;7.622;2022-08-19T01:50:54;94927.47;;;19.49;70.61
30744;BME280;17486;46.738;7.622;2022-08-19T01:53:20;94938.41;;;19.54;70.96
30744;BME280;17486;46.738;7.622;2022-08-19T01:55:46;94928.72;;;19.55;70.89
30744;BME280;17486;46.738;7.622;2022-08-19T01:58:17;94933.28;;;19.53;71.08
30744;BME280;17486;46.738;7.622;2022-08-19T02:00:44;94853.22;;;19.15;71.12
30744;BME280;17486;46.738;7.622;2022-08-19T02:03:10;94895.41;;;19.44;70.85
30744;BME280;17486;46.738;7.622;2022-08-19T02:05:37;94902.59;;;19.52;71.34
30744;BME280;17486;46.738;7.622;2022-08-19T02:08:04;94808.09;;;18.88;71.14
30744;BME280;17486;46.738;7.622;2022-08-19T02:10:29;94894.69;;;19.42;71.68
30744;BME280;17486;46.738;7.622;2022-08-19T02:12:55;94838.06;;;19.07;71.31
30744;BME280;17486;46.738;7.622;2022-08-19T02:15:21;94856.28;;;19.10;71.02
30744;BME280;17486;46.738;7.622;2022-08-19T02:17:47;94831.44;;;18.93;71.47
30744;BME280;17486;46.738;7.622;2022-08-19T02:20:13;94933.00;;;19.46;71.51
30744;BME280;17486;46.738;7.622;2022-08-19T02:22:39;94868.88;;;19.07;71.35
30744;BME280;17486;46.738;7.622;2022-08-19T02:25:08;94840.00;;;18.85;71.61
30744;BME280;17486;46.738;7.622;2022-08-19T02:27:34;94878.47;;;19.08;71.78
30744;BME280;17486;46.738;7.622;2022-08-19T02:30:00;94950.22;;;19.41;71.73
30744;BME280;17486;46.738;7.622;2022-08-19T02:32:26;94941.47;;;19.40;71.76
30744;BME280;17486;46.738;7.622;2022-08-19T02:34:51;94946.22;;;19.36;71.98
30744;BME280;17486;46.738;7.622;2022-08-19T02:37:17;94952.44;;;19.35;71.85
30744;BME280;17486;46.738;7.622;2022-08-19T02:40:01;94938.84;;;19.30;71.21
30744;BME280;17486;46.738;7.622;2022-08-19T02:42:26;94880.09;;;18.89;70.85
30744;BME280;17486;46.738;7.622;2022-08-19T02:44:52;94956.63;;;19.38;70.92
30744;BME280;17486;46.738;7.622;2022-08-19T02:47:18;94953.69;;;19.31;71.06
30744;BME280;17486;46.738;7.622;2022-08-19T02:49:44;94868.97;;;18.85;70.87
30744;BME280;17486;46.738;7.622;2022-08-19T02:52:10;94934.97;;;19.25;70.81
30744;BME280;17486;46.738;7.622;2022-08-19T02:54:37;94899.94;;;19.03;70.68
30744;BME280;17486;46.738;7.622;2022-08-19T02:57:04;94956.47;;;19.39;70.95
30744;BME280;17486;46.738;7.622;2022-08-19T02:59:30;94874.56;;;18.92;71.02
30744;BME280;17486;46.738;7.622;2022-08-19T03:01:56;94873.97;;;18.88;70.94
30744;BME280;17486;46.738;7.622;2022-08-19T03:04:21;94943.56;;;19.36;71.13
30744;BME280;17486;46.738;7.622;2022-08-19T03:06:48;94941.75;;;19.37;71.35
30744;BME280;17486;46.738;7.622;2022-08-19T03:09:15;94949.28;;;19.42;71.35
30744;BME280;17486;46.738;7.622;2022-08-19T03:11:40;94955.38;;;19.32;71.26
30744;BME280;17486;46.738;7.622;2022-08-19T03:14:07;94941.06;;;19.25;71.46
30744;BME280;17486;46.738;7.622;2022-08-19T03:16:36;94972.16;;;19.31;71.80
30744;BME280;17486;46.738;7.622;2022-08-19T03:19:04;94893.97;;;18.91;71.92
30744;BME280;17486;46.738;7.622;2022-08-19T03:21:32;94959.50;;;19.25;71.68
30744;BME280;17486;46.738;7.622;2022-08-19T03:24:03;94961.84;;;19.28;71.53
30744;BME280;17486;46.738;7.622;2022-08-19T03:26:29;94958.00;;;19.32;71.38
30744;BME280;17486;46.738;7.622;2022-08-19T03:28:55;94944.78;;;19.22;71.51
30744;BME280;17486;46.738;7.622;2022-08-19T03:31:22;94963.09;;;19.24;71.82
30744;BME280;17486;46.738;7.622;2022-08-19T03:33:49;94976.16;;;19.26;72.03
30744;BME280;17486;46.738;7.622;2022-08-19T03:36:24;94911.28;;;18.84;72.04
30744;BME280;17486;46.738;7.622;2022-08-19T03:38:52;94911.53;;;18.81;71.96
30744;BME280;17486;46.738;7.622;2022-08-19T03:41:22;94965.03;;;19.12;71.88
30744;BME280;17486;46.738;7.622;2022-08-19T03:43:48;94996.53;;;19.14;71.25
30744;BME280;17486;46.738;7.622;2022-08-19T03:46:21;94973.75;;;19.03;71.00
30744;BME280;17486;46.738;7.622;2022-08-19T03:48:50;94998.03;;;19.07;70.86
30744;BME280;17486;46.738;7.622;2022-08-19T03:51:24;94995.69;;;19.03;70.68
30744;BME280;17486;46.738;7.622;2022-08-19T03:53:50;94968.97;;;18.87;70.65
30744;BME280;17486;46.738;7.622;2022-08-19T03:56:17;94981.50;;;18.95;70.58
30744;BME280;17486;46.738;7.622;2022-08-19T03:58:43;94895.75;;;18.40;70.50
30744;BME280;17486;46.738;7.622;2022-08-19T04:01:12;94920.16;;;18.52;70.49
30744;BME280;17486;46.738;7.622;2022-08-19T04:03:39;95002.72;;;18.93;70.59
30744;BME280;17486;46.738;7.622;2022-08-19T04:06:16;94967.56;;;18.83;70.49
30744;BME280;17486;46.738;7.622;2022-08-19T04:08:43;94987.41;;;18.87;70.43
30744;BME280;17486;46.738;7.622;2022-08-19T04:11:12;95002.97;;;18.90;70.46
30744;BME280;17486;46.738;7.622;2022-08-19T04:13:38;94995.31;;;18.87;70.90
30744;BME280;17486;46.738;7.622;2022-08-19T04:16:04;95003.22;;;18.87;70.79
30744;BME280;17486;46.738;7.622;2022-08-19T04:18:30;95009.44;;;18.86;70.82
30744;BME280;17486;46.738;7.622;2022-08-19T04:20:56;95007.47;;;18.78;70.96
30744;BME280;17486;46.738;7.622;2022-08-19T04:23:22;95018.44;;;18.83;70.96
30744;BME280;17486;46.738;7.622;2022-08-19T04:25:48;94923.25;;;18.26;71.17
30744;BME280;17486;46.738;7.622;2022-08-19T04:28:13;94992.97;;;18.63;71.02
30744;BME280;17486;46.738;7.622;2022-08-19T04:30:44;95000.50;;;18.67;71.72
30744;BME280;17486;46.738;7.622;2022-08-19T04:33:11;95033.81;;;18.78;71.54
30744;BME280;17486;46.738;7.622;2022-08-19T04:35:39;94957.09;;;18.31;71.50
30744;BME280;17486;46.738;7.622;2022-08-19T04:38:05;94991.84;;;18.55;71.62
30744;BME280;17486;46.738;7.622;2022-08-19T04:40:31;94997.44;;;18.62;71.74
30744;BME280;17486;46.738;7.622;2022-08-19T04:43:15;94991.84;;;18.55;71.68
30744;BME280;17486;46.738;7.622;2022-08-19T04:45:45;95023.69;;;18.73;71.79
30744;BME280;17486;46.738;7.622;2022-08-19T04:48:11;95022.97;;;18.71;71.89
30744;BME280;17486;46.738;7.622;2022-08-19T04:50:40;95047.44;;;18.83;71.90
30744;BME280;17486;46.738;7.622;2022-08-19T04:53:07;95015.78;;;18.73;71.87
30744;BME280;17486;46.738;7.622;2022-08-19T04:55:32;95023.03;;;18.81;72.15
30744;BME280;17486;46.738;7.622;2022-08-19T04:57:58;94948.38;;;18.30;72.05
30744;BME280;17486;46.738;7.622;2022-08-19T05:00:24;95025.78;;;18.80;72.38
30744;BME280;17486;46.738;7.622;2022-08-19T05:02:50;94959.34;;;18.35;72.56
30744;BME280;17486;46.738;7.622;2022-08-19T05:05:16;95043.78;;;18.75;72.67
30744;BME280;17486;46.738;7.622;2022-08-19T05:07:41;95022.16;;;18.71;72.37
30744;BME280;17486;46.738;7.622;2022-08-19T05:10:07;95032.03;;;18.79;72.35
30744;BME280;17486;46.738;7.622;2022-08-19T05:12:33;95060.47;;;18.85;72.11
30744;BME280;17486;46.738;7.622;2022-08-19T05:14:58;94959.59;;;18.32;72.14
30744;BME280;17486;46.738;7.622;2022-08-19T05:17:26;95015.16;;;18.60;71.86
30744;BME280;17486;46.738;7.622;2022-08-19T05:19:52;95053.56;;;18.84;71.90
30744;BME280;17486;46.738;7.622;2022-08-19T05:22:35;95040.19;;;18.76;71.64
30744;BME280;17486;46.738;7.622;2022-08-19T05:25:05;94986.63;;;18.34;72.01
30744;BME280;17486;46.738;7.622;2022-08-19T05:27:31;94983.72;;;18.37;72.01
30744;BME280;17486;46.738;7.622;2022-08-19T05:29:57;95060.75;;;18.82;71.82
30744;BME280;17486;46.738;7.622;2022-08-19T05:32:22;95057.41;;;18.80;71.96
30744;BME280;17486;46.738;7.622;2022-08-19T05:34:48;94999.00;;;18.44;72.26
30744;BME280;17486;46.738;7.622;2022-08-19T05:37:14;95063.53;;;18.80;72.19
30744;BME280;17486;46.738;7.622;2022-08-19T05:39:39;94990.66;;;18.38;72.38
30744;BME280;17486;46.738;7.622;2022-08-19T05:42:10;95030.97;;;18.60;72.51
30744;BME280;17486;46.738;7.622;2022-08-19T05:44:39;94983.72;;;18.37;72.36
30744;BME280;17486;46.738;7.622;2022-08-19T05:47:06;95064.66;;;18.87;72.49
30744;BME280;17486;46.738;7.622;2022-08-19T05:49:33;95062.88;;;18.88;72.45
30744;BME280;17486;46.738;7.622;2022-08-19T05:52:03;94976.53;;;18.39;72.25
30744;BME280;17486;46.738;7.622;2022-08-19T05:54:29;95037.69;;;18.74;72.36
30744;BME280;17486;46.738;7.622;2022-08-19T05:56:55;95043.97;;;18.83;72.09
30744;BME280;17486;46.738;7.622;2022-08-19T05:59:21;95053.75;;;18.92;72.04
30744;BME280;17486;46.738;7.622;2022-08-19T06:01:48;95070.41;;;18.93;71.87
30744;BME280;17486;46.738;7.622;2022-08-19T06:04:18;94961.84;;;18.37;71.81
30744;BME280;17486;46.738;7.622;2022-08-19T06:06:50;95047.31;;;18.85;71.97
30744;BME280;17486;46.738;7.622;2022-08-19T06:09:17;94984.75;;;18.46;72.13
30744;BME280;17486;46.738;7.622;2022-08-19T06:11:54;95063.00;;;18.86;72.53
30744;BME280;17486;46.738;7.622;2022-08-19T06:14:23;95074.56;;;18.95;72.36
30744;BME280;17486;46.738;7.622;2022-08-19T06:16:49;95072.78;;;18.96;72.30
30744;BME280;17486;46.738;7.622;2022-08-19T06:19:19;95072.06;;;18.94;72.41
30744;BME280;17486;46.738;7.622;2022-08-19T06:21:47;95060.47;;;18.85;72.21
30744;BME280;17486;46.738;7.622;2022-08-19T06:24:16;95062.44;;;18.83;72.15
30744;BME280;17486;46.738;7.622;2022-08-19T06:26:43;95009.53;;;18.44;72.20
30744;BME280;17486;46.738;7.622;2022-08-19T06:29:11;95090.78;;;18.91;72.25
30744;BME280;17486;46.738;7.622;2022-08-19T06:31:42;95015.75;;;18.43;72.50
30744;BME280;17486;46.738;7.622;2022-08-19T06:34:09;95085.72;;;18.87;72.60
30744;BME280;17486;46.738;7.622;2022-08-19T06:36:41;95109.94;;;18.93;72.94
30744;BME280;17486;46.738;7.622;2022-08-19T06:39:12;95017.03;;;18.48;72.80
30744;BME280;17486;46.738;7.622;2022-08-19T06:41:41;95083.22;;;18.86;72.62
30744;BME280;17486;46.738;7.622;2022-08-19T06:44:07;95027.31;;;18.51;72.62
30744;BME280;17486;46.738;7.622;2022-08-19T06:46:32;95049.28;;;18.62;72.65
30744;BME280;17486;46.738;7.622;2022-08-19T06:48:58;95108.59;;;18.98;72.68
30744;BME280;17486;46.738;7.622;2022-08-19T06:51:24;95100.78;;;18.97;72.94
30744;BME280;17486;46.738;7.622;2022-08-19T06:53:53;95113.84;;;18.98;72.66
30744;BME280;17486;46.738;7.622;2022-08-19T06:56:27;95135.13;;;19.07;72.55
30744;BME280;17486;46.738;7.622;2022-08-19T06:58:59;95042.28;;;18.51;72.20
30744;BME280;17486;46.738;7.622;2022-08-19T07:01:26;95113.44;;;19.03;72.13
30744;BME280;17486;46.738;7.622;2022-08-19T07:03:52;95103.84;;;18.92;71.87
30744;BME280;17486;46.738;7.622;2022-08-19T07:06:18;95118.41;;;18.96;71.99
30744;BME280;17486;46.738;7.622;2022-08-19T07:08:45;95046.53;;;18.42;72.13
30744;BME280;17486;46.738;7.622;2022-08-19T07:11:13;95107.47;;;18.80;72.38
30744;BME280;17486;46.738;7.622;2022-08-19T07:13:40;95139.53;;;18.85;72.46
30744;BME280;17486;46.738;7.622;2022-08-19T07:16:07;95128.09;;;18.75;72.53
30744;BME280;17486;46.738;7.622;2022-08-19T07:18:33;95142.31;;;18.83;72.50
30744;BME280;17486;46.738;7.622;2022-08-19T07:21:22;95070.75;;;18.36;72.70
30744;BME280;17486;46.738;7.622;2022-08-19T07:23:50;95138.56;;;18.86;72.82
30744;BME280;17486;46.738;7.622;2022-08-19T07:26:21;95073.25;;;18.37;73.37
30744;BME280;17486;46.738;7.622;2022-08-19T07:28:48;95096.91;;;18.49;73.35
30744;BME280;17486;46.738;7.622;2022-08-19T07:31:16;95144.63;;;18.77;73.38
30744;BME280;17486;46.738;7.622;2022-08-19T07:33:43;95167.31;;;18.89;73.44
30744;BME280;17486;46.738;7.622;2022-08-19T07:36:10;95117.31;;;18.56;72.82
30744;BME280;17486;46.738;7.622;2022-08-19T07:38:43;95190.66;;;18.94;72.34
30744;BME280;17486;46.738;7.622;2022-08-19T07:41:11;95198.00;;;18.90;72.05
30744;BME280;17486;46.738;7.622;2022-08-19T07:43:38;95170.34;;;18.84;71.74
30744;BME280;17486;46.738;7.622;2022-08-19T07:46:04;95154.34;;;18.55;71.06
30744;BME280;17486;46.738;7.622;2022-08-19T07:48:29;95081.75;;;18.09;71.21
30744;BME280;17486;46.738;7.622;2022-08-19T07:50:57;95156.13;;;18.54;71.03
30744;BME280;17486;46.738;7.622;2022-08-19T07:53:24;95163.50;;;18.61;71.21
30744;BME280;17486;46.738;7.622;2022-08-19T07:55:50;95097.75;;;18.17;71.04
30744;BME280;17486;46.738;7.622;2022-08-19T07:58:18;95165.97;;;18.52;71.13
30744;BME280;17486;46.738;7.622;2022-08-19T08:00:47;95136.44;;;18.37;70.79
30744;BME280;17486;46.738;7.622;2022-08-19T08:03:16;95192.53;;;18.49;70.60
30744;BME280;17486;46.738;7.622;2022-08-19T08:05:42;95186.56;;;18.47;70.47
30744;BME280;17486;46.738;7.622;2022-08-19T08:08:26;95113.88;;;17.91;70.28
30744;BME280;17486;46.738;7.622;2022-08-19T08:11:10;95221.13;;;18.54;70.59
30744;BME280;17486;46.738;7.622;2022-08-19T08:13:36;95214.31;;;18.51;70.85
30744;BME280;17486;46.738;7.622;2022-08-19T08:16:02;95140.13;;;18.14;70.89
30744;BME280;17486;46.738;7.622;2022-08-19T08:18:27;95088.53;;;17.79;71.11
30744;BME280;17486;46.738;7.622;2022-08-19T08:20:54;95191.47;;;18.40;71.44
30744;BME280;17486;46.738;7.622;2022-08-19T08:23:19;95103.84;;;17.85;71.68
30744;BME280;17486;46.738;7.622;2022-08-19T08:25:50;95195.31;;;18.36;71.39
30744;BME280;17486;46.738;7.622;2022-08-19T08:28:17;95126.94;;;17.93;71.68
30744;BME280;17486;46.738;7.622;2022-08-19T08:30:43;95209.41;;;18.47;71.76
30744;BME280;17486;46.738;7.622;2022-08-19T08:33:10;95131.69;;;17.99;71.81
30744;BME280;17486;46.738;7.622;2022-08-19T08:35:36;95131.56;;;18.00;72.00
30744;BME280;17486;46.738;7.622;2022-08-19T08:38:03;95222.91;;;18.53;72.15
30744;BME280;17486;46.738;7.622;2022-08-19T08:43:11;95206.78;;;18.47;72.03
30744;BME280;17486;46.738;7.622;2022-08-19T08:45:44;95216.94;;;18.51;71.90
30744;BME280;17486;46.738;7.622;2022-08-19T08:48:25;95140.91;;;17.93;71.88
30744;BME280;17486;46.738;7.622;2022-08-19T08:50:56;95147.09;;;17.92;72.06
30744;BME280;17486;46.738;7.622;2022-08-19T08:53:24;95154.06;;;17.93;71.79
30744;BME280;17486;46.738;7.622;2022-08-19T08:55:51;95187.03;;;18.09;72.29
30744;BME280;17486;46.738;7.622;2022-08-19T08:58:25;95184.41;;;18.09;72.07
30744;BME280;17486;46.738;7.622;2022-08-19T09:00:51;95260.19;;;18.49;72.10
30744;BME280;17486;46.738;7.622;2022-08-19T09:03:19;95271.78;;;18.46;72.18
30744;BME280;17486;46.738;7.622;2022-08-19T09:05:59;95243.13;;;18.32;72.80
30744;BME280;17486;46.738;7.622;2022-08-19T09:08:32;95279.31;;;18.51;72.49
30744;BME280;17486;46.738;7.622;2022-08-19T09:11:04;95257.09;;;18.44;72.21
30744;BME280;17486;46.738;7.622;2022-08-19T09:16:21;95157.44;;;17.72;72.09
30744;BME280;17486;46.738;7.622;2022-08-19T09:18:55;95248.78;;;18.16;72.64
30744;BME280;17486;46.738;7.622;2022-08-19T09:21:24;95186.72;;;17.79;72.91
30744;BME280;17486;46.738;7.622;2022-08-19T09:23:50;95182.19;;;17.70;73.18
30744;BME280;17486;46.738;7.622;2022-08-19T09:26:19;95188.03;;;17.73;72.77
30744;BME280;17486;46.738;7.622;2022-08-19T09:28:46;95279.63;;;18.25;72.87
30744;BME280;17486;46.738;7.622;2022-08-19T09:31:23;95285.47;;;18.29;72.78
30744;BME280;17486;46.738;7.622;2022-08-19T09:33:50;95254.28;;;18.13;72.38
30744;BME280;17486;46.738;7.622;2022-08-19T09:36:18;95282.47;;;18.33;72.54
30744;BME280;17486;46.738;7.622;2022-08-19T09:38:44;95197.81;;;17.83;72.17
30744;BME280;17486;46.738;7.622;2022-08-19T09:41:16;95289.16;;;18.37;72.34
30744;BME280;17486;46.738;7.622;2022-08-19T09:43:45;95293.59;;;18.37;72.27
30744;BME280;17486;46.738;7.622;2022-08-19T09:46:11;95296.94;;;18.39;72.47
30744;BME280;17486;46.738;7.622;2022-08-19T09:48:38;95312.25;;;18.45;72.43
30744;BME280;17486;46.738;7.622;2022-08-19T09:51:14;95300.66;;;18.36;72.08
30744;BME280;17486;46.738;7.622;2022-08-19T09:53:41;95192.00;;;17.68;71.88
30744;BME280;17486;46.738;7.622;2022-08-19T09:56:07;95241.81;;;17.92;72.25
30744;BME280;17486;46.738;7.622;2022-08-19T09:58:34;95340.50;;;18.43;72.37
30744;BME280;17486;46.738;7.622;2022-08-19T10:01:01;95342.91;;;18.46;72.41
30744;BME280;17486;46.738;7.622;2022-08-19T10:03:28;95245.81;;;17.98;72.24
30744;BME280;17486;46.738;7.622;2022-08-19T10:05:55;95318.94;;;18.49;72.34
30744;BME280;17486;46.738;7.622;2022-08-19T10:08:35;95315.63;;;18.47;72.01
30744;BME280;17486;46.738;7.622;2022-08-19T10:11:02;95242.19;;;18.10;72.25
30744;BME280;17486;46.738;7.622;2022-08-19T10:13:30;95314.50;;;18.61;72.50
30744;BME280;17486;46.738;7.622;2022-08-19T10:16:07;95311.63;;;18.64;72.48
30744;BME280;17486;46.738;7.622;2022-08-19T10:18:33;95316.91;;;18.64;71.36
30744;BME280;17486;46.738;7.622;2022-08-19T10:21:27;95317.97;;;18.62;71.32
30744;BME280;17486;46.738;7.622;2022-08-19T10:23:56;95314.88;;;18.56;71.02
30744;BME280;17486;46.738;7.622;2022-08-19T10:26:25;95308.06;;;18.54;71.30
30744;BME280;17486;46.738;7.622;2022-08-19T10:28:51;95302.91;;;18.52;71.22
30744;BME280;17486;46.738;7.622;2022-08-19T10:31:20;95307.09;;;18.55;71.49
30744;BME280;17486;46.738;7.622;2022-08-19T10:33:50;95342.72;;;18.70;71.31
30744;BME280;17486;46.738;7.622;2022-08-19T10:36:21;95326.22;;;18.68;71.33
30744;BME280;17486;46.738;7.622;2022-08-19T10:38:50;95262.03;;;18.26;71.15
30744;BME280;17486;46.738;7.622;2022-08-19T10:41:21;95333.03;;;18.71;71.43
30744;BME280;17486;46.738;7.622;2022-08-19T10:43:51;95325.84;;;18.73;71.51
30744;BME280;17486;46.738;7.622;2022-08-19T10:46:18;95330.00;;;18.76;71.23
30744;BME280;17486;46.738;7.622;2022-08-19T10:48:44;95314.47;;;18.72;71.09
30744;BME280;17486;46.738;7.622;2022-08-19T10:51:11;95264.97;;;18.44;70.97
30744;BME280;17486;46.738;7.622;2022-08-19T10:53:56;95275.72;;;18.52;70.63
30744;BME280;17486;46.738;7.622;2022-08-19T10:56:24;95335.25;;;18.87;70.49
30744;BME280;17486;46.738;7.622;2022-08-19T10:59:08;95343.44;;;18.84;70.47
30744;BME280;17486;46.738;7.622;2022-08-19T11:01:34;95341.25;;;18.89;70.56
30744;BME280;17486;46.738;7.622;2022-08-19T11:04:04;95267.13;;;18.50;70.87
30744;BME280;17486;46.738;7.622;2022-08-19T11:06:31;95332.03;;;18.95;70.72
30744;BME280;17486;46.738;7.622;2022-08-19T11:08:57;95330.72;;;18.89;71.04
30744;BME280;17486;46.738;7.622;2022-08-19T11:11:23;95289.53;;;18.77;71.07
30744;BME280;17486;46.738;7.622;2022-08-19T11:13:49;95260.34;;;18.68;70.73
30744;BME280;17486;46.738;7.622;2022-08-19T11:16:17;95322.00;;;19.10;70.19
30744;BME280;17486;46.738;7.622;2022-08-19T11:18:49;95311.28;;;19.01;70.15
30744;BME280;17486;46.738;7.622;2022-08-19T11:23:42;95318.75;;;19.17;69.95
30744;BME280;17486;46.738;7.622;2022-08-19T11:26:08;95323.75;;;19.20;69.99
30744;BME280;17486;46.738;7.622;2022-08-19T11:28:35;95263.88;;;18.90;69.71
30744;BME280;17486;46.738;7.622;2022-08-19T11:31:00;95323.34;;;19.36;69.52
30744;BME280;17486;46.738;7.622;2022-08-19T11:33:29;95319.63;;;19.39;69.47
30744;BME280;17486;46.738;7.622;2022-08-19T11:35:57;95256.38;;;19.07;68.55
30744;BME280;17486;46.738;7.622;2022-08-19T11:38:23;95318.84;;;19.48;68.34
30744;BME280;17486;46.738;7.622;2022-08-19T11:40:59;95322.75;;;19.54;68.57
30744;BME280;17486;46.738;7.622;2022-08-19T11:43:25;95243.19;;;19.07;68.10
30744;BME280;17486;46.738;7.622;2022-08-19T11:45:52;95306.47;;;19.49;68.13
30744;BME280;17486;46.738;7.622;2022-08-19T11:48:18;95320.56;;;19.59;67.59
30744;BME280;17486;46.738;7.622;2022-08-19T11:50:53;95332.16;;;19.68;67.45
30744;BME280;17486;46.738;7.622;2022-08-19T11:53:21;95326.59;;;19.71;67.21
30744;BME280;17486;46.738;7.622;2022-08-19T11:55:47;95236.19;;;19.17;67.32
30744;BME280;17486;46.738;7.622;2022-08-19T11:58:15;95347.34;;;19.76;66.74
30744;BME280;17486;46.738;7.622;2022-08-19T12:00:41;95256.25;;;19.29;67.07
30744;BME280;17486;46.738;7.622;2022-08-19T12:03:07;95328.88;;;19.76;66.60
30744;BME280;17486;46.738;7.622;2022-08-19T12:05:33;95343.84;;;19.75;66.45
30744;BME280;17486;46.738;7.622;2022-08-19T12:08:01;95262.38;;;19.30;67.14
30744;BME280;17486;46.738;7.622;2022-08-19T12:10:26;95318.38;;;19.64;66.92
30744;BME280;17486;46.738;7.622;2022-08-19T12:12:51;95253.88;;;19.26;67.30
30744;BME280;17486;46.738;7.622;2022-08-19T12:15:17;95335.91;;;19.75;67.22
30744;BME280;17486;46.738;7.622;2022-08-19T12:17:42;95303.78;;;19.60;66.95
30744;BME280;17486;46.738;7.622;2022-08-19T12:20:10;95261.28;;;19.32;66.95
30744;BME280;17486;46.738;7.622;2022-08-19T12:22:37;95292.19;;;19.51;66.32
30744;BME280;17486;46.738;7.622;2022-08-19T12:25:04;95322.16;;;19.71;66.27
30744;BME280;17486;46.738;7.622;2022-08-19T12:27:30;95330.50;;;19.77;65.94
30744;BME280;17486;46.738;7.622;2022-08-19T12:29:56;95336.06;;;19.74;66.07
30744;BME280;17486;46.738;7.622;2022-08-19T12:32:22;95342.06;;;19.76;66.20
30744;BME280;17486;46.738;7.622;2022-08-19T12:34:50;95328.13;;;19.74;65.99
30744;BME280;17486;46.738;7.622;2022-08-19T12:37:15;95320.59;;;19.69;65.88
30744;BME280;17486;46.738;7.622;2022-08-19T12:39:42;95323.81;;;19.72;66.06
30744;BME280;17486;46.738;7.622;2022-08-19T12:42:12;95348.03;;;19.78;66.00
30744;BME280;17486;46.738;7.622;2022-08-19T12:44:39;95335.34;;;19.71;65.91
30744;BME280;17486;46.738;7.622;2022-08-19T12:47:06;95320.84;;;19.56;66.01
30744;BME280;17486;46.738;7.622;2022-08-19T12:49:32;95343.53;;;19.68;66.37
30744;BME280;17486;46.738;7.622;2022-08-19T12:52:03;95299.16;;;19.31;66.10
30744;BME280;17486;46.738;7.622;2022-08-19T12:54:29;95340.25;;;19.55;66.58
30744;BME280;17486;46.738;7.622;2022-08-19T12:56:56;95298.25;;;19.21;66.64
30744;BME280;17486;46.738;7.622;2022-08-19T12:59:21;95369.41;;;19.53;66.39
30744;BME280;17486;46.738;7.622;2022-08-19T13:01:47;95360.91;;;19.50;66.67
30744;BME280;17486;46.738;7.622;2022-08-19T13:04:12;95376.28;;;19.45;66.90
30744;BME280;17486;46.738;7.622;2022-08-19T13:06:38;95369.00;;;19.37;67.26
30744;BME280;17486;46.738;7.622;2022-08-19T13:09:04;95367.25;;;19.26;67.36
30744;BME280;17486;46.738;7.622;2022-08-19T13:11:29;95275.81;;;18.62;67.11